Terminal Aerodrome Forecast
Issued by NWS

Home | Current Version | Previous Version | Graphics & Text | Print | Product List | Glossary On
Versions: 1 2 3 4 5 6 7 8 9 10 11 12 13 14 15 16 17
000
FTUS43 KICT 231122
TAFCNU
TAF
KCNU 231122Z 2312/2412 30007KT P6SM FEW030 SCT120
     FM231300 34013KT P6SM SCT030 BKN120
      TEMPO 2313/2316 BKN030
     FM231600 36016G23KT P6SM VCSH SCT035 BKN100
     FM232300 35009KT P6SM SCT200
     FM240300 35006KT P6SM SKC=

USA.gov is the U.S. government's official web portal to all federal, state and local government web resources and services.